Weather at Medovnitsa Airstrip

Public forecast

Using degrees Celsius for public forecast. Weather courtesy of forecast.io.

Closest aviation weather report (METAR) to Medovnitsa Airstrip

Report is more than 6 hours old.

Closest report is Nis Airport, 45.1 nm (83.6 km) WSW. Retrieved 2022/09/17 19:00 UTC (11 days ago):

LYNI 171900Z 33015KT 300V360 9999 BKN040 15/14 Q1001 NOSIG

Closest aviation forecast (TAF) to Medovnitsa Airstrip

Forecast is more than 12 hours old.

Closest forecast is Nis Airport, 45.1 nm (83.6 km) WSW. Retrieved 2022/09/17 18:23 UTC (11 days ago):

TAF LYNI 171700Z 1718/1818 32008KT 9999 SCT033 TX16/1813Z TN10/1804Z BECMG 1719/1721 32018KT TEMPO 1722/1803 32020G40KT RA BKN015 BECMG 1815/1817 10004KT